RYR32A LFML-LEPA
Flight info
| Callsign | RYR32A |
|---|---|
| Flight time | 0h 54m |
| Altitude | 37000 |
| Route | VATIR N852 VERSO L129 LUNIK |
| Aircraft | B738/M-SDE2E3FGHIRWXY/LB1 |
Departure
| Time | 2026-05-04 16:44 |
|---|---|
| Airport | Marseille Provence Airport (LFML) |
Arrival
| Time | 2026-05-04 17:39 |
|---|---|
| Airport | Palma de Mallorca Airport (LEPA) |
| Time | Latitude | Longitude | Altitude | Speed | Heading |
|---|---|---|---|---|---|
| 2026-05-04 16:17 | 43.44164 | 5.21761 | 34 ft | 0 kts | 89° |
| 2026-05-04 16:37 | 43.44150 | 5.21806 | 35 ft | 5 kts | 154° |
| 2026-05-04 16:37 | 43.44110 | 5.21801 | 36 ft | 8 kts | 207° |
| 2026-05-04 16:37 | 43.43992 | 5.21651 | 36 ft | 12 kts | 223° |
| 2026-05-04 16:38 | 43.43940 | 5.21461 | 36 ft | 13 kts | 311° |
| 2026-05-04 16:39 | 43.44129 | 5.21191 | 36 ft | 16 kts | 314° |
| 2026-05-04 16:39 | 43.44280 | 5.20959 | 34 ft | 16 kts | 301° |
| 2026-05-04 16:40 | 43.44406 | 5.20728 | 36 ft | 15 kts | 314° |
| 2026-05-04 16:40 | 43.44542 | 5.20534 | 36 ft | 13 kts | 314° |
| 2026-05-04 16:41 | 43.44672 | 5.20348 | 36 ft | 15 kts | 314° |
| 2026-05-04 16:41 | 43.44892 | 5.20032 | 36 ft | 16 kts | 316° |
| 2026-05-04 16:42 | 43.44865 | 5.19807 | 34 ft | 16 kts | 141° |
| 2026-05-04 16:43 | 43.44795 | 5.19904 | 33 ft | 25 kts | 134° |
| 2026-05-04 16:43 | 43.43935 | 5.21129 | 36 ft | 144 kts | 133° |
| 2026-05-04 16:43 | 43.43193 | 5.22204 | 357 ft | 161 kts | 133° |
| 2026-05-04 16:44 | 43.39461 | 5.25671 | 2583 ft | 186 kts | 144° |
| 2026-05-04 16:45 | 43.37178 | 5.27678 | 3629 ft | 197 kts | 147° |
| 2026-05-04 16:46 | 43.33190 | 5.27960 | 5221 ft | 236 kts | 214° |
| 2026-05-04 16:46 | 43.31064 | 5.23983 | 6220 ft | 264 kts | 231° |
| 2026-05-04 16:47 | 43.29058 | 5.19861 | 8018 ft | 256 kts | 232° |
| 2026-05-04 16:47 | 43.27035 | 5.15759 | 9476 ft | 266 kts | 232° |
| 2026-05-04 16:48 | 43.23735 | 5.09107 | 10787 ft | 312 kts | 233° |
| 2026-05-04 16:48 | 43.22515 | 5.06654 | 11335 ft | 319 kts | 233° |
| 2026-05-04 16:49 | 43.19923 | 5.01533 | 12760 ft | 329 kts | 231° |
| 2026-05-04 16:49 | 43.17028 | 4.96676 | 14453 ft | 329 kts | 229° |
| 2026-05-04 16:50 | 43.14060 | 4.91786 | 15866 ft | 339 kts | 229° |
| 2026-05-04 16:50 | 43.10999 | 4.86688 | 17221 ft | 349 kts | 229° |
| 2026-05-04 16:51 | 43.07881 | 4.81477 | 18503 ft | 359 kts | 229° |
| 2026-05-04 16:51 | 43.06828 | 4.79720 | 18910 ft | 361 kts | 229° |
| 2026-05-04 16:51 | 43.02154 | 4.74928 | 20307 ft | 367 kts | 209° |
| 2026-05-04 16:52 | 42.98376 | 4.72125 | 21301 ft | 373 kts | 209° |
| 2026-05-04 16:52 | 42.96091 | 4.70426 | 21925 ft | 375 kts | 209° |
| 2026-05-04 16:53 | 42.91530 | 4.67011 | 23337 ft | 373 kts | 210° |
| 2026-05-04 16:53 | 42.84773 | 4.61924 | 25421 ft | 364 kts | 210° |
| 2026-05-04 16:54 | 42.82589 | 4.60280 | 26070 ft | 361 kts | 210° |
| 2026-05-04 16:55 | 42.73935 | 4.53771 | 28772 ft | 350 kts | 210° |
| 2026-05-04 16:55 | 42.69695 | 4.50589 | 28925 ft | 347 kts | 210° |
| 2026-05-04 16:56 | 42.59108 | 4.42665 | 28926 ft | 349 kts | 210° |
| 2026-05-04 16:57 | 42.52714 | 4.37895 | 28893 ft | 350 kts | 210° |
| 2026-05-04 16:58 | 42.44208 | 4.31568 | 28913 ft | 348 kts | 210° |
| 2026-05-04 17:00 | 42.31518 | 4.22163 | 28894 ft | 346 kts | 211° |
| 2026-05-04 17:01 | 42.20925 | 4.14344 | 28910 ft | 348 kts | 211° |
| 2026-05-04 17:02 | 42.12427 | 4.08090 | 28887 ft | 348 kts | 211° |
| 2026-05-04 17:03 | 42.06077 | 4.03422 | 28909 ft | 347 kts | 211° |
| 2026-05-04 17:03 | 41.99714 | 3.98754 | 28907 ft | 347 kts | 211° |
| 2026-05-04 17:04 | 41.91013 | 3.93080 | 28899 ft | 351 kts | 199° |
| 2026-05-04 17:05 | 41.81352 | 3.90805 | 28907 ft | 352 kts | 194° |
| 2026-05-04 17:06 | 41.74099 | 3.89134 | 28908 ft | 352 kts | 194° |
| 2026-05-04 17:07 | 41.67682 | 3.87643 | 28902 ft | 351 kts | 195° |
| 2026-05-04 17:07 | 41.62056 | 3.86338 | 28905 ft | 351 kts | 195° |
| 2026-05-04 17:08 | 41.54858 | 3.84686 | 28908 ft | 351 kts | 194° |
| 2026-05-04 17:09 | 41.50055 | 3.83591 | 28913 ft | 351 kts | 194° |
| 2026-05-04 17:09 | 41.45227 | 3.82491 | 28904 ft | 350 kts | 195° |
| 2026-05-04 17:10 | 41.33238 | 3.79763 | 28917 ft | 351 kts | 195° |
| 2026-05-04 17:11 | 41.28441 | 3.78674 | 28896 ft | 351 kts | 195° |
| 2026-05-04 17:12 | 41.21223 | 3.77039 | 28909 ft | 350 kts | 195° |
| 2026-05-04 17:13 | 41.09605 | 3.72809 | 28906 ft | 344 kts | 206° |
| 2026-05-04 17:14 | 41.00693 | 3.68166 | 28907 ft | 344 kts | 205° |
| 2026-05-04 17:14 | 40.96350 | 3.65929 | 28635 ft | 330 kts | 206° |
| 2026-05-04 17:15 | 40.94227 | 3.64838 | 28369 ft | 325 kts | 206° |
| 2026-05-04 17:15 | 40.90070 | 3.62700 | 27679 ft | 318 kts | 206° |
| 2026-05-04 17:16 | 40.85961 | 3.60589 | 26969 ft | 315 kts | 206° |
| 2026-05-04 17:16 | 40.79840 | 3.57448 | 25936 ft | 317 kts | 206° |
| 2026-05-04 17:17 | 40.77808 | 3.56407 | 25584 ft | 316 kts | 206° |
| 2026-05-04 17:17 | 40.71704 | 3.53289 | 24533 ft | 311 kts | 206° |
| 2026-05-04 17:18 | 40.69686 | 3.52259 | 24181 ft | 310 kts | 206° |
| 2026-05-04 17:18 | 40.65692 | 3.50222 | 23479 ft | 308 kts | 206° |
| 2026-05-04 17:19 | 40.61698 | 3.48187 | 22713 ft | 305 kts | 206° |
| 2026-05-04 17:19 | 40.57773 | 3.46191 | 22015 ft | 301 kts | 206° |
| 2026-05-04 17:20 | 40.53865 | 3.44205 | 21341 ft | 299 kts | 206° |
| 2026-05-04 17:20 | 40.49986 | 3.42234 | 20685 ft | 301 kts | 205° |
| 2026-05-04 17:20 | 40.48047 | 3.41251 | 20355 ft | 302 kts | 205° |
| 2026-05-04 17:21 | 40.44085 | 3.39362 | 19675 ft | 304 kts | 195° |
| 2026-05-04 17:21 | 40.39817 | 3.39363 | 19020 ft | 308 kts | 183° |
| 2026-05-04 17:22 | 40.37668 | 3.39509 | 18697 ft | 307 kts | 182° |
| 2026-05-04 17:22 | 40.35554 | 3.39652 | 18371 ft | 307 kts | 182° |
| 2026-05-04 17:23 | 40.29175 | 3.40054 | 17340 ft | 304 kts | 182° |
| 2026-05-04 17:23 | 40.27065 | 3.40180 | 17007 ft | 302 kts | 182° |
| 2026-05-04 17:23 | 40.22910 | 3.40423 | 16369 ft | 298 kts | 182° |
| 2026-05-04 17:24 | 40.20838 | 3.40544 | 16048 ft | 297 kts | 182° |
| 2026-05-04 17:24 | 40.14708 | 3.40898 | 15127 ft | 292 kts | 182° |
| 2026-05-04 17:25 | 40.12681 | 3.41014 | 14825 ft | 291 kts | 182° |
| 2026-05-04 17:25 | 40.08640 | 3.41247 | 14216 ft | 289 kts | 182° |
| 2026-05-04 17:26 | 40.04650 | 3.41476 | 13601 ft | 287 kts | 181° |
| 2026-05-04 17:26 | 39.98978 | 3.40284 | 12526 ft | 268 kts | 218° |
| 2026-05-04 17:27 | 39.96123 | 3.37148 | 11322 ft | 271 kts | 223° |
| 2026-05-04 17:27 | 39.93322 | 3.33932 | 10391 ft | 265 kts | 223° |
| 2026-05-04 17:28 | 39.90575 | 3.30810 | 9428 ft | 260 kts | 223° |
| 2026-05-04 17:29 | 39.86495 | 3.26217 | 7913 ft | 256 kts | 222° |
| 2026-05-04 17:29 | 39.82479 | 3.21718 | 6647 ft | 249 kts | 221° |
| 2026-05-04 17:30 | 39.78590 | 3.17372 | 5847 ft | 244 kts | 221° |
| 2026-05-04 17:31 | 39.76043 | 3.14528 | 5308 ft | 240 kts | 223° |
| 2026-05-04 17:31 | 39.72340 | 3.10405 | 4865 ft | 225 kts | 222° |
| 2026-05-04 17:32 | 39.70256 | 3.07493 | 4686 ft | 220 kts | 243° |
| 2026-05-04 17:33 | 39.67977 | 3.02471 | 4470 ft | 209 kts | 237° |
| 2026-05-04 17:33 | 39.67206 | 3.00853 | 4302 ft | 212 kts | 238° |
| 2026-05-04 17:34 | 39.64995 | 2.96185 | 3520 ft | 192 kts | 238° |
| 2026-05-04 17:34 | 39.64316 | 2.94751 | 3290 ft | 184 kts | 237° |
| 2026-05-04 17:35 | 39.62378 | 2.90654 | 2570 ft | 170 kts | 237° |
| 2026-05-04 17:35 | 39.61167 | 2.88092 | 2143 ft | 162 kts | 236° |
| 2026-05-04 17:35 | 39.60592 | 2.86875 | 1930 ft | 152 kts | 236° |
| 2026-05-04 17:36 | 39.60062 | 2.85751 | 1754 ft | 138 kts | 236° |
| 2026-05-04 17:36 | 39.59577 | 2.84726 | 1560 ft | 133 kts | 237° |
| 2026-05-04 17:36 | 39.59105 | 2.83722 | 1392 ft | 126 kts | 235° |
| 2026-05-04 17:36 | 39.58623 | 2.82713 | 1213 ft | 135 kts | 234° |
| 2026-05-04 17:37 | 39.58117 | 2.81674 | 1070 ft | 135 kts | 237° |
| 2026-05-04 17:37 | 39.57642 | 2.80644 | 902 ft | 129 kts | 238° |
| 2026-05-04 17:37 | 39.57178 | 2.79642 | 670 ft | 132 kts | 237° |
| 2026-05-04 17:37 | 39.56696 | 2.78624 | 514 ft | 132 kts | 237° |
| 2026-05-04 17:38 | 39.56205 | 2.77580 | 324 ft | 138 kts | 237° |
| 2026-05-04 17:38 | 39.55716 | 2.76530 | 123 ft | 137 kts | 238° |
| 2026-05-04 17:38 | 39.55232 | 2.75506 | 29 ft | 123 kts | 238° |
| 2026-05-04 17:38 | 39.54890 | 2.74787 | 29 ft | 53 kts | 239° |
| 2026-05-04 17:39 | 39.54805 | 2.74383 | 29 ft | 24 kts | 271° |
| 2026-05-04 17:39 | 39.54802 | 2.74198 | 29 ft | 8 kts | 268° |
| 2026-05-04 17:39 | 39.54801 | 2.74181 | 29 ft | 0 kts | 268° |
| 2026-05-04 17:44 | 39.54796 | 2.74154 | 29 ft | 6 kts | 250° |
| 2026-05-04 17:45 | 39.54778 | 2.74104 | 29 ft | 6 kts | 243° |
| 2026-05-04 17:45 | 39.54757 | 2.74056 | 29 ft | 6 kts | 240° |
| 2026-05-04 17:45 | 39.54736 | 2.74009 | 29 ft | 6 kts | 240° |
| 2026-05-04 17:45 | 39.54761 | 2.73942 | 29 ft | 12 kts | 313° |
| 2026-05-04 17:46 | 39.54767 | 2.73929 | 29 ft | 2 kts | 290° |
| 2026-05-04 17:46 | 39.54767 | 2.73905 | 29 ft | 5 kts | 258° |
| 2026-05-04 17:46 | 39.54738 | 2.73837 | 29 ft | 13 kts | 232° |
| 2026-05-04 17:46 | 39.54683 | 2.73719 | 29 ft | 17 kts | 238° |
| 2026-05-04 17:47 | 39.54681 | 2.73601 | 29 ft | 13 kts | 335° |
| 2026-05-04 17:47 | 39.54758 | 2.73540 | 29 ft | 13 kts | 328° |
| 2026-05-04 17:47 | 39.54818 | 2.73532 | 29 ft | 8 kts | 48° |
| 2026-05-04 17:47 | 39.54837 | 2.73572 | 29 ft | 0 kts | 58° |